createdAt,value
2018-09-25T00:00:19.231Z,0.4
2018-09-25T00:02:19.011Z,0.7
2018-09-25T00:04:18.779Z,0.3
2018-09-25T00:06:18.525Z,0.6
2018-09-25T00:08:19.278Z,0.7
2018-09-25T00:10:18.592Z,0.2
2018-09-25T00:12:18.559Z,0.3
2018-09-25T00:14:19.338Z,0.5
2018-09-25T00:16:18.882Z,0.3
2018-09-25T00:18:18.754Z,0.4
2018-09-25T00:20:18.551Z,0.4
2018-09-25T00:22:19.319Z,0.5
2018-09-25T00:24:19.084Z,0.5
2018-09-25T00:26:19.297Z,0.5
2018-09-25T00:28:19.085Z,0.5
2018-09-25T00:30:18.882Z,0.9
2018-09-25T00:32:18.675Z,0.4
2018-09-25T00:34:19.446Z,0.9
2018-09-25T00:36:18.959Z,0.3
2018-09-25T00:38:18.722Z,0.2
2018-09-25T00:40:18.974Z,0.3
2018-09-25T00:42:18.736Z,0.5
2018-09-25T00:44:19.492Z,0.5
2018-09-25T00:46:19.204Z,0.3
2018-09-25T00:48:19.000Z,0.4
2018-09-25T00:50:18.793Z,0.3
2018-09-25T00:52:18.596Z,0.4
2018-09-25T00:54:19.382Z,0.5
2018-09-25T00:56:18.544Z,0.5
2018-09-25T00:58:19.278Z,0.4
2018-09-25T01:00:19.042Z,0.4
2018-09-25T01:02:18.852Z,0.8
2018-09-25T01:04:18.659Z,0.2
2018-09-25T01:06:19.189Z,0.9
2018-09-25T01:08:18.954Z,0.6
2018-09-25T01:10:19.221Z,0.3
2018-09-25T01:12:18.979Z,0.5
2018-09-25T01:14:18.754Z,0.6
2018-09-25T01:16:19.297Z,0.2
2018-09-25T01:18:19.167Z,0.5
2018-09-25T01:20:18.966Z,0.6
2018-09-25T01:22:18.711Z,0.4
2018-09-25T01:24:19.480Z,0.4
2018-09-25T01:26:18.587Z,0.6
2018-09-25T01:28:19.389Z,0.3
2018-09-25T01:30:19.187Z,0.3
2018-09-25T01:32:18.939Z,0.3
2018-09-25T01:34:18.701Z,0.6
2018-09-25T01:36:19.264Z,0.4
2018-09-25T01:38:19.037Z,0.6
2018-09-25T01:40:19.294Z,0.2
2018-09-25T01:42:19.063Z,0.4
2018-09-25T01:44:18.836Z,0.3
2018-09-25T01:46:18.542Z,0.6
2018-09-25T01:48:19.295Z,0.6
2018-09-25T01:50:19.061Z,0.6
2018-09-25T01:52:18.831Z,0.5
2018-09-25T01:54:18.591Z,1
2018-09-25T01:56:18.689Z,0.8
2018-09-25T01:58:19.458Z,0.5
2018-09-25T02:00:19.233Z,0.2
2018-09-25T02:02:19.025Z,0.5
2018-09-25T02:04:18.769Z,0.4
2018-09-25T02:06:19.311Z,0.5
2018-09-25T02:08:19.093Z,0.4
2018-09-25T02:10:19.357Z,0.6
2018-09-25T02:12:19.169Z,0.3
2018-09-25T02:14:18.948Z,0.7
2018-09-25T02:16:18.641Z,0.3
2018-09-25T02:18:19.478Z,0.2
2018-09-25T02:20:19.276Z,0.5
2018-09-25T02:22:19.044Z,0.6
2018-09-25T02:24:18.812Z,0.2
2018-09-25T02:26:19.447Z,0.8
2018-09-25T02:28:19.222Z,0.7
2018-09-25T02:30:19.060Z,0.3
2018-09-25T02:32:18.846Z,0.7
2018-09-25T02:34:18.614Z,0.6
2018-09-25T02:36:19.172Z,0.6
2018-09-25T02:38:18.936Z,0.4
2018-09-25T02:40:19.134Z,0.6
2018-09-25T02:42:18.879Z,0.3
2018-09-25T02:44:18.657Z,0.9
2018-09-25T02:46:19.243Z,0.8
2018-09-25T02:48:19.011Z,0.7
2018-09-25T02:50:18.754Z,0.8
2018-09-25T02:52:18.520Z,0.9
2018-09-25T02:54:19.273Z,0.7
2018-09-25T02:56:18.870Z,0.5
2018-09-25T02:58:18.675Z,0.9
2018-09-25T03:00:19.440Z,0.3
2018-09-25T03:02:19.220Z,0.4
2018-09-25T03:04:18.992Z,0.4
2018-09-25T03:06:18.547Z,0.6
2018-09-25T03:08:19.348Z,0.7
2018-09-25T03:10:18.636Z,0.5
2018-09-25T03:12:19.423Z,0.9
2018-09-25T03:14:19.200Z,0.4
2018-09-25T03:16:18.804Z,0.6
2018-09-25T03:18:18.665Z,0.9
2018-09-25T03:20:19.453Z,0.3
2018-09-25T03:22:19.267Z,0.3
2018-09-25T03:24:19.036Z,0.5
2018-09-25T03:26:19.173Z,0.4
2018-09-25T03:28:18.960Z,0.8
2018-09-25T03:30:18.822Z,0.3
2018-09-25T03:32:18.608Z,0.6
2018-09-25T03:34:19.399Z,0.5
2018-09-25T03:36:18.995Z,0.8
2018-09-25T03:38:18.772Z,0.4
2018-09-25T03:40:19.025Z,0.4
2018-09-25T03:42:18.803Z,0.6
2018-09-25T03:44:18.608Z,0.7
2018-09-25T03:46:18.728Z,0.4
2018-09-25T03:48:19.507Z,0.9
2018-09-25T03:50:19.295Z,0.7
2018-09-25T03:52:19.093Z,0.3
2018-09-25T03:54:18.869Z,0.3
2018-09-25T03:56:19.487Z,0.5
2018-09-25T03:58:19.254Z,0.8
2018-09-25T04:00:19.035Z,0.7
2018-09-25T04:02:18.802Z,0.4
2018-09-25T04:04:18.597Z,0.3
2018-09-25T04:06:19.370Z,0.7
2018-09-25T04:08:19.295Z,0.2
2018-09-25T04:10:18.538Z,1.4
2018-09-25T04:12:19.312Z,0.7
2018-09-25T04:14:19.059Z,0.5
2018-09-25T04:16:18.641Z,0.4
2018-09-25T04:18:19.475Z,0.8
2018-09-25T04:20:19.237Z,0.5
2018-09-25T04:22:18.984Z,0.2
2018-09-25T04:24:18.726Z,0.3
2018-09-25T04:26:18.883Z,0.7
2018-09-25T04:28:18.677Z,0.3
2018-09-25T04:30:18.564Z,1.1
2018-09-25T04:32:19.314Z,0.6
2018-09-25T04:34:19.078Z,0.6
2018-09-25T04:36:18.602Z,0.5
2018-09-25T04:38:19.367Z,0.3
2018-09-25T04:40:18.571Z,0.5
2018-09-25T04:42:19.327Z,0.6
2018-09-25T04:44:19.072Z,0.5
2018-09-25T04:46:18.593Z,0.4
2018-09-25T04:48:19.363Z,0.7
2018-09-25T04:50:19.134Z,0.6
2018-09-25T04:52:18.918Z,0.4
2018-09-25T04:54:18.673Z,0.7
2018-09-25T04:56:19.261Z,0.5
2018-09-25T04:58:19.012Z,0.8
2018-09-25T05:00:18.770Z,0.5
2018-09-25T05:02:18.512Z,0.7
2018-09-25T05:04:19.263Z,1
2018-09-25T05:06:19.313Z,0.4
2018-09-25T05:08:19.072Z,0.4
2018-09-25T05:10:19.315Z,1.2
2018-09-25T05:12:19.084Z,0.3
2018-09-25T05:14:18.830Z,1.5
2018-09-25T05:16:19.431Z,1
2018-09-25T05:18:19.262Z,0.6
2018-09-25T05:20:19.070Z,0.3
2018-09-25T05:22:18.830Z,0.4
2018-09-25T05:24:18.571Z,0.6
2018-09-25T05:26:19.097Z,0.8
2018-09-25T05:28:18.868Z,0.4
2018-09-25T05:30:18.679Z,0.5
2018-09-25T05:32:19.443Z,0.4
2018-09-25T05:34:19.200Z,1
2018-09-25T05:36:18.788Z,0.4
2018-09-25T05:38:18.532Z,0.3
2018-09-25T05:40:18.808Z,0.5
2018-09-25T05:42:18.562Z,0.5
2018-09-25T05:44:19.330Z,0.6
2018-09-25T05:46:18.852Z,1.3
2018-09-25T05:48:18.700Z,0.4
2018-09-25T05:50:18.675Z,0.7
2018-09-25T05:52:19.434Z,0.5
2018-09-25T05:54:19.195Z,0.5
2018-09-25T05:56:18.745Z,0.4
2018-09-25T05:58:18.524Z,0.6
2018-09-25T06:00:19.345Z,0.6
2018-09-25T06:02:19.155Z,0.7
2018-09-25T06:04:18.910Z,0.6
2018-09-25T06:06:18.746Z,1.1
2018-09-25T06:08:18.520Z,0.6
2018-09-25T06:10:18.764Z,1
2018-09-25T06:12:18.509Z,1
2018-09-25T06:14:19.281Z,0.9
2018-09-25T06:16:19.392Z,0.7
2018-09-25T06:18:19.209Z,0.8
2018-09-25T06:20:18.964Z,0.5
2018-09-25T06:22:18.711Z,1
2018-09-25T06:24:19.480Z,0.3
2018-09-25T06:26:18.801Z,0.6
2018-09-25T06:28:18.564Z,0.4
2018-09-25T06:30:19.323Z,0.5
2018-09-25T06:32:19.097Z,0.6
2018-09-25T06:34:18.860Z,0.8
2018-09-25T06:36:19.079Z,0.9
2018-09-25T06:38:18.815Z,0.7
2018-09-25T06:40:19.064Z,0.7
2018-09-25T06:42:18.831Z,0.9
2018-09-25T06:44:18.593Z,0.1
2018-09-25T06:46:18.737Z,0.7
2018-09-25T06:48:18.570Z,0.6
2018-09-25T06:50:19.366Z,0.4
2018-09-25T06:52:19.131Z,0.5
2018-09-25T06:54:18.888Z,0.4
2018-09-25T06:56:18.580Z,0.5
2018-09-25T06:58:19.357Z,0.4
2018-09-25T07:00:19.115Z,0.7
2018-09-25T07:02:18.891Z,0.3
2018-09-25T07:04:18.679Z,0.6
2018-09-25T07:06:19.223Z,0.5
2018-09-25T07:08:18.984Z,0.3
2018-09-25T07:10:19.353Z,0.4
2018-09-25T07:12:19.357Z,0.8
2018-09-25T07:14:19.131Z,0.6
2018-09-25T07:16:18.648Z,0.5
2018-09-25T07:18:19.485Z,0.6
2018-09-25T07:20:19.258Z,1
2018-09-25T07:22:19.013Z,0.3
2018-09-25T07:24:18.782Z,0.5
2018-09-25T07:26:18.706Z,0.7
2018-09-25T07:28:19.456Z,0.8
2018-09-25T07:30:19.250Z,0.9
2018-09-25T07:32:19.036Z,1
2018-09-25T07:34:18.832Z,0.7
2018-09-25T07:36:19.359Z,0.6
2018-09-25T07:38:19.115Z,0.5
2018-09-25T07:40:19.321Z,0.8
2018-09-25T07:42:19.102Z,0.7
2018-09-25T07:44:18.893Z,0.4
2018-09-25T07:46:18.995Z,0.3
2018-09-25T07:48:18.886Z,0.6
2018-09-25T07:50:18.705Z,0.6
2018-09-25T07:52:19.481Z,0.5
2018-09-25T07:54:19.242Z,1.1
2018-09-25T07:56:18.578Z,0.4
2018-09-25T07:58:19.374Z,0.6
2018-09-25T08:00:19.153Z,0.4
2018-09-25T08:02:18.783Z,1
2018-09-25T08:04:18.536Z,1
2018-09-25T08:06:19.112Z,0.8
2018-09-25T08:08:18.862Z,1.3
2018-09-25T08:10:19.094Z,1
2018-09-25T08:12:18.854Z,0.5
2018-09-25T08:14:18.638Z,0.9
2018-09-25T08:16:18.699Z,0.2
2018-09-25T08:18:18.532Z,1.1
2018-09-25T08:20:19.306Z,1.1
2018-09-25T08:22:19.113Z,0.7
2018-09-25T08:24:19.024Z,0.3
2018-09-25T08:26:18.741Z,0.4
2018-09-25T08:28:19.488Z,1
2018-09-25T08:30:19.265Z,0.9
2018-09-25T08:32:19.031Z,0.4
2018-09-25T08:34:18.774Z,0.7
2018-09-25T08:36:19.070Z,0.5
2018-09-25T08:38:18.851Z,1.2
2018-09-25T08:40:19.114Z,0.7
2018-09-25T08:42:18.893Z,0.6
2018-09-25T08:44:18.647Z,0.5
2018-09-25T08:46:19.185Z,0.8
2018-09-25T08:48:18.955Z,0.5
2018-09-25T08:50:18.735Z,0.5
2018-09-25T08:52:18.510Z,0.7
2018-09-25T08:54:19.302Z,0.8
2018-09-25T08:56:18.884Z,0.4
2018-09-25T08:58:18.655Z,0.6
2018-09-25T09:00:19.418Z,1.3
2018-09-25T09:02:19.196Z,0.6
2018-09-25T09:04:18.972Z,1.1
2018-09-25T09:06:19.038Z,0.5
2018-09-25T09:08:18.875Z,0.4
2018-09-25T09:10:19.213Z,1.2
2018-09-25T09:12:19.014Z,0.9
2018-09-25T09:14:18.788Z,0.5
2018-09-25T09:16:19.092Z,0.5
2018-09-25T09:18:18.924Z,0.5
2018-09-25T09:20:18.668Z,0.3
2018-09-25T09:22:19.464Z,0.6
2018-09-25T09:24:19.255Z,0.5
2018-09-25T09:26:18.574Z,0.9
2018-09-25T09:28:19.340Z,0.3
2018-09-25T09:30:19.097Z,0.4
2018-09-25T09:32:18.854Z,0.5
2018-09-25T09:34:18.626Z,0.9
2018-09-25T09:36:18.778Z,1
2018-09-25T09:38:18.556Z,0.8
2018-09-25T09:40:18.812Z,1
2018-09-25T09:42:18.647Z,0.7
2018-09-25T09:44:19.399Z,0.5
2018-09-25T09:46:18.937Z,0.6
2018-09-25T09:48:18.719Z,0.8
2018-09-25T09:50:19.578Z,0.3
2018-09-25T09:52:19.083Z,0.7
2018-09-25T09:54:18.864Z,0.5
2018-09-25T09:56:19.421Z,0.5
2018-09-25T09:58:19.323Z,0.3
2018-09-25T10:00:19.140Z,0.6
2018-09-25T10:02:18.912Z,0.7
2018-09-25T10:04:18.676Z,0.4
2018-09-25T10:06:19.345Z,1.3
2018-09-25T10:08:19.089Z,0.3
2018-09-25T10:10:19.376Z,0.8
2018-09-25T10:12:19.191Z,0.3
2018-09-25T10:14:19.034Z,0.8
2018-09-25T10:16:18.603Z,0.5
2018-09-25T10:18:19.482Z,0.4
2018-09-25T10:20:19.284Z,0.3
2018-09-25T10:22:19.051Z,0.4
2018-09-25T10:24:18.831Z,0.9
2018-09-25T10:26:18.911Z,0.3
2018-09-25T10:28:18.703Z,0.2
2018-09-25T10:30:19.458Z,0.7
2018-09-25T10:32:19.230Z,0.3
2018-09-25T10:34:19.120Z,0.6
2018-09-25T10:36:18.790Z,0.5
2018-09-25T10:38:18.577Z,0.3
2018-09-25T10:40:18.838Z,0.8
2018-09-25T10:42:18.603Z,0.5
2018-09-25T10:44:19.384Z,0.6
2018-09-25T10:46:19.457Z,0.4
2018-09-25T10:48:19.232Z,0.6
2018-09-25T10:50:19.065Z,0.4
2018-09-25T10:52:19.014Z,0.4
2018-09-25T10:54:18.790Z,0.1
2018-09-25T10:56:19.061Z,0.4
2018-09-25T10:58:19.312Z,0.3
2018-09-25T11:00:19.240Z,0.1
2018-09-25T11:02:19.014Z,0.3
2018-09-25T11:04:18.786Z,0.3
2018-09-25T11:06:19.333Z,0.5
2018-09-25T11:08:19.102Z,0.3
2018-09-25T11:10:19.426Z,0.3
2018-09-25T11:12:19.376Z,0.5
2018-09-25T11:14:19.145Z,0.6
2018-09-25T11:16:18.829Z,0.2
2018-09-25T11:18:18.676Z,0.2
2018-09-25T11:20:19.484Z,0.4
2018-09-25T11:22:19.264Z,0.4
2018-09-25T11:24:19.029Z,0.2
2018-09-25T11:26:19.091Z,0.4
2018-09-25T11:28:18.862Z,0.3
2018-09-25T11:30:18.642Z,0.4
2018-09-25T11:32:19.410Z,0.3
2018-09-25T11:34:19.180Z,0.5
2018-09-25T11:36:19.441Z,0.4
2018-09-25T11:38:19.230Z,0.3
2018-09-25T11:40:19.491Z,0.1
2018-09-25T11:42:19.266Z,0.3
2018-09-25T11:44:19.036Z,0.4
2018-09-25T11:46:18.585Z,0.1
2018-09-25T11:48:19.358Z,0.3
2018-09-25T11:50:19.130Z,0.3
2018-09-25T11:52:18.919Z,0.7
2018-09-25T11:54:18.697Z,0.2
2018-09-25T11:56:19.265Z,0.8
2018-09-25T11:58:19.079Z,0.4
2018-09-25T12:00:18.874Z,0.2
2018-09-25T12:02:18.739Z,0.9
2018-09-25T12:04:18.711Z,0.7
2018-09-25T12:06:19.288Z,0.4
2018-09-25T12:08:19.044Z,0.5
2018-09-25T12:10:19.308Z,0.3
2018-09-25T12:12:19.087Z,0.5
2018-09-25T12:14:18.879Z,0.6
2018-09-25T12:16:19.395Z,0.2
2018-09-25T12:18:19.276Z,0.4
2018-09-25T12:20:19.060Z,0.5
2018-09-25T12:22:18.847Z,0.3
2018-09-25T12:24:18.710Z,0.2
2018-09-25T12:26:18.912Z,0.2
2018-09-25T12:28:18.704Z,0.3
2018-09-25T12:30:19.480Z,0.2
2018-09-25T12:32:19.266Z,0.1
2018-09-25T12:34:19.079Z,0.4
2018-09-25T12:36:19.264Z,0.4
2018-09-25T12:38:19.029Z,0.8
2018-09-25T12:40:19.299Z,0.3
2018-09-25T12:42:19.086Z,0.5
2018-09-25T12:44:18.870Z,0.2
2018-09-25T12:46:19.460Z,0.3
2018-09-25T12:48:19.242Z,0.7
2018-09-25T12:50:19.019Z,0.3
2018-09-25T12:52:18.829Z,0.5
2018-09-25T12:54:18.617Z,0.3
2018-09-25T12:56:18.716Z,0.3
2018-09-25T12:58:19.504Z,0.6
2018-09-25T13:00:19.286Z,0.1
2018-09-25T13:02:19.059Z,0.3
2018-09-25T13:04:18.859Z,0.4
2018-09-25T13:06:18.395Z,0.2
2018-09-25T13:08:19.154Z,0.3
2018-09-25T13:10:19.439Z,0.4
2018-09-25T13:12:19.203Z,0.3
2018-09-25T13:14:18.986Z,0.2
2018-09-25T13:16:19.076Z,0.3
2018-09-25T13:18:18.938Z,0.4
2018-09-25T13:20:18.723Z,0.6
2018-09-25T13:22:19.500Z,0.5
2018-09-25T13:24:19.275Z,0.2
2018-09-25T13:26:19.337Z,0.3
2018-09-25T13:28:18.098Z,0.2
2018-09-25T13:30:18.884Z,0.4
2018-09-25T13:32:18.677Z,0.6
2018-09-25T13:34:19.476Z,0.2
2018-09-25T13:36:19.096Z,0.3
2018-09-25T13:38:18.909Z,0.2
2018-09-25T13:40:19.162Z,0.4
2018-09-25T13:42:18.950Z,0.3
2018-09-25T13:44:18.741Z,0.5
2018-09-25T13:46:18.868Z,0.1
2018-09-25T13:48:18.628Z,0.5
2018-09-25T13:50:19.415Z,0.1
2018-09-25T13:52:19.204Z,0.4
2018-09-25T13:54:19.014Z,0.3
2018-09-25T13:56:18.635Z,0.2
2018-09-25T13:58:18.422Z,0.2
2018-09-25T14:00:19.220Z,0.2
2018-09-25T14:02:19.000Z,0.4
2018-09-25T14:04:18.787Z,0.2
2018-09-25T14:06:18.994Z,0.2
2018-09-25T14:08:18.765Z,0.3
2018-09-25T14:10:19.017Z,0.4
2018-09-25T14:12:17.803Z,0.2
2018-09-25T14:14:17.584Z,0.3
2018-09-25T14:16:18.198Z,0.1
2018-09-25T14:18:18.081Z,0.3
2018-09-25T14:20:18.868Z,0.3
2018-09-25T14:22:18.655Z,0.3
2018-09-25T14:24:18.432Z,0.5
2018-09-25T14:26:19.015Z,0.4
2018-09-25T14:28:17.802Z,0.4
2018-09-25T14:30:18.626Z,0.4
2018-09-25T14:32:18.401Z,0.3
2018-09-25T14:34:19.194Z,0.3
2018-09-25T14:36:18.740Z,0.4
2018-09-25T14:38:18.593Z,0.5
2018-09-25T14:40:18.865Z,0.3
2018-09-25T14:42:18.681Z,0.3
2018-09-25T14:44:19.461Z,0.3
2018-09-25T14:46:17.592Z,0.3
2018-09-25T14:48:18.362Z,0.1
2018-09-25T14:50:19.153Z,0.3
2018-09-25T14:52:18.935Z,0.5
2018-09-25T14:54:17.738Z,0.2
2018-09-25T14:56:18.895Z,0.3
2018-09-25T14:58:17.687Z,0.8
2018-09-25T15:00:19.469Z,0.2
2018-09-25T15:02:18.265Z,0.5
2018-09-25T15:04:18.043Z,0.2
2018-09-25T15:06:18.216Z,0.3
2018-09-25T15:08:18.019Z,0.4
2018-09-25T15:10:18.355Z,0.4
2018-09-25T15:12:18.147Z,0.2
2018-09-25T15:14:17.966Z,0.1
2018-09-25T15:16:17.659Z,0.2
2018-09-25T15:18:18.513Z,0.1
2018-09-25T15:20:18.322Z,0.4
2018-09-25T15:22:18.449Z,0.2
2018-09-25T15:24:18.153Z,0.3
2018-09-25T15:26:18.239Z,0.7
2018-09-25T15:28:18.030Z,0.2
2018-09-25T15:30:17.822Z,0.4
2018-09-25T15:32:17.597Z,0.4
2018-09-25T15:34:19.418Z,0.4
2018-09-25T15:36:18.105Z,0.3
2018-09-25T15:38:18.882Z,0.2
2018-09-25T15:40:18.153Z,0.4
2018-09-25T15:42:17.959Z,0.2
2018-09-25T15:44:18.763Z,0.5
2018-09-25T15:46:18.891Z,0.3
2018-09-25T15:48:18.681Z,0.3
2018-09-25T15:50:19.477Z,0.2
2018-09-25T15:52:19.248Z,0.3
2018-09-25T15:54:18.052Z,0.5
2018-09-25T15:56:17.571Z,0.4
2018-09-25T15:58:18.376Z,0.4
2018-09-25T16:00:19.216Z,0.3
2018-09-25T16:02:19.200Z,0.1
2018-09-25T16:04:18.989Z,0.3
2018-09-25T16:06:17.625Z,0.1
2018-09-25T16:08:18.452Z,0.3
2018-09-25T16:10:17.703Z,0.2
2018-09-25T16:12:18.497Z,0.2
2018-09-25T16:14:19.267Z,0.2
2018-09-25T16:16:19.338Z,0.3
2018-09-25T16:18:19.239Z,0.4
2018-09-25T16:20:19.071Z,0.2
2018-09-25T16:22:17.836Z,0.3
2018-09-25T16:24:18.638Z,0.3
2018-09-25T16:26:19.322Z,0.5
2018-09-25T16:28:18.121Z,0.3
2018-09-25T16:30:17.907Z,0.5
2018-09-25T16:32:18.703Z,0.6
2018-09-25T16:34:18.569Z,0.4
2018-09-25T16:36:18.666Z,0.9
2018-09-25T16:38:19.447Z,0.6
2018-09-25T16:40:18.772Z,0.3
2018-09-25T16:42:17.538Z,0.4
2018-09-25T16:44:19.334Z,1.8
2018-09-25T16:46:17.861Z,2
2018-09-25T16:48:17.641Z,6
2018-09-25T16:50:19.455Z,3.9
2018-09-25T16:52:19.261Z,1.2
2018-09-25T16:54:19.016Z,6.3
2018-09-25T16:56:19.120Z,6.4
2018-09-25T16:58:18.921Z,4.7
2018-09-25T17:00:18.861Z,1.7
2018-09-25T17:02:18.653Z,0.6
2018-09-25T17:04:19.440Z,2.5
2018-09-25T17:06:19.031Z,2.1
2018-09-25T17:08:18.817Z,1.7
2018-09-25T17:10:19.075Z,1
2018-09-25T17:12:18.857Z,0.8
2018-09-25T17:14:17.638Z,1.2
2018-09-25T17:16:18.716Z,1.9
2018-09-25T17:18:18.584Z,1.3
2018-09-25T17:20:19.390Z,1.6
2018-09-25T17:22:19.149Z,2
2018-09-25T17:24:18.953Z,2
2018-09-25T17:26:19.518Z,2.2
2018-09-25T17:28:19.323Z,2.1
2018-09-25T17:30:19.120Z,3.4
2018-09-25T17:32:18.884Z,3.6
2018-09-25T17:34:18.662Z,2.5
2018-09-25T17:36:19.207Z,2.4
2018-09-25T17:38:18.995Z,2.2
2018-09-25T17:40:19.314Z,1.3
2018-09-25T17:42:19.180Z,1.5
2018-09-25T17:44:18.975Z,2.2
2018-09-25T17:46:19.524Z,3.8
2018-09-25T17:48:19.294Z,4.5
2018-09-25T17:50:19.078Z,4.7
2018-09-25T17:52:18.850Z,1.5
2018-09-25T17:54:18.633Z,1.6
2018-09-25T17:56:19.177Z,1.6
2018-09-25T17:58:18.941Z,1.5
2018-09-25T18:00:18.713Z,2.3
2018-09-25T18:02:19.516Z,2
2018-09-25T18:04:19.288Z,2.4
2018-09-25T18:06:19.434Z,3.1
2018-09-25T18:08:19.240Z,2.5
2018-09-25T18:10:19.484Z,1.6
2018-09-25T18:12:19.284Z,2.3
2018-09-25T18:14:19.085Z,2.5
2018-09-25T18:16:19.193Z,2.1
2018-09-25T18:18:19.067Z,1.7
2018-09-25T18:20:18.876Z,1.7
2018-09-25T18:22:18.647Z,1.5
2018-09-25T18:24:19.441Z,1.8
2018-09-25T18:26:19.514Z,1.6
2018-09-25T18:28:19.387Z,1.6
2018-09-25T18:30:19.224Z,1.7
2018-09-25T18:32:18.986Z,3.9
2018-09-25T18:34:18.745Z,4.5
2018-09-25T18:36:19.307Z,4.6
2018-09-25T18:38:19.103Z,8.1
2018-09-25T18:40:19.342Z,12.2
2018-09-25T18:42:19.091Z,14.2
2018-09-25T18:44:18.853Z,17.3
2018-09-25T18:46:19.435Z,17.8
2018-09-25T18:48:19.226Z,11.8
2018-09-25T18:50:18.990Z,10.1
2018-09-25T18:52:18.749Z,9.9
2018-09-25T18:54:18.539Z,8.6
2018-09-25T18:56:18.620Z,6.7
2018-09-25T18:58:19.381Z,7.5
2018-09-25T19:00:19.193Z,7.4
2018-09-25T19:02:18.989Z,4.6
2018-09-25T19:04:18.763Z,4
2018-09-25T19:06:18.614Z,3.4
2018-09-25T19:08:19.393Z,2.8
2018-09-25T19:10:18.658Z,2.5
2018-09-25T19:12:19.463Z,5.5
2018-09-25T19:14:19.237Z,5.6
2018-09-25T19:16:19.313Z,3.7
2018-09-25T19:18:19.131Z,2.4
2018-09-25T19:20:18.938Z,4.6
2018-09-25T19:22:18.689Z,5
2018-09-25T19:24:19.450Z,7
2018-09-25T19:26:19.111Z,5.3
2018-09-25T19:28:18.906Z,3
2018-09-25T19:30:18.876Z,2.7
2018-09-25T19:32:18.625Z,2.5
2018-09-25T19:34:19.387Z,1.5
2018-09-25T19:36:18.916Z,1.9
2018-09-25T19:38:18.687Z,1.6
2018-09-25T19:40:18.934Z,2.4
2018-09-25T19:42:18.717Z,1.2
2018-09-25T19:44:19.539Z,2.4
2018-09-25T19:46:18.625Z,2.3
2018-09-25T19:48:19.425Z,2
2018-09-25T19:50:19.211Z,2
2018-09-25T19:52:18.982Z,1.2
2018-09-25T19:54:18.777Z,1.7
2018-09-25T19:56:18.938Z,2
2018-09-25T19:58:18.926Z,2.6
2018-09-25T20:00:18.834Z,1.9
2018-09-25T20:02:18.604Z,1.9
2018-09-25T20:04:19.372Z,2.1
2018-09-25T20:06:19.202Z,2.2
2018-09-25T20:08:19.092Z,2.6
2018-09-25T20:10:19.327Z,1.6
2018-09-25T20:12:19.105Z,1.2
2018-09-25T20:14:18.924Z,1.4
2018-09-25T20:16:19.463Z,1.5
2018-09-25T20:18:19.335Z,2
2018-09-25T20:20:19.120Z,1
2018-09-25T20:22:18.885Z,1.8
2018-09-25T20:24:18.665Z,2.1
2018-09-25T20:26:19.260Z,1.8
2018-09-25T20:28:19.014Z,1.5
2018-09-25T20:30:18.806Z,1.5
2018-09-25T20:32:19.466Z,1.8
2018-09-25T20:34:19.233Z,1.9
2018-09-25T20:36:19.305Z,1.7
2018-09-25T20:38:19.055Z,1.5
2018-09-25T20:40:18.538Z,1.8
2018-09-25T20:42:19.340Z,2.3
2018-09-25T20:44:19.121Z,2.4
2018-09-25T20:46:19.362Z,2.8
2018-09-25T20:48:19.138Z,3.8
2018-09-25T20:50:18.911Z,2.9
2018-09-25T20:52:18.692Z,1.6
2018-09-25T20:54:19.462Z,2.5
2018-09-25T20:56:19.039Z,1.8
2018-09-25T20:58:18.796Z,2.4
2018-09-25T21:00:18.562Z,2.4
2018-09-25T21:02:19.339Z,2.4
2018-09-25T21:04:19.111Z,2.2
2018-09-25T21:06:18.698Z,2.7
2018-09-25T21:08:19.468Z,1.9
2018-09-25T21:10:18.766Z,2.9
2018-09-25T21:12:18.526Z,2
2018-09-25T21:14:19.281Z,2.3
2018-09-25T21:16:19.422Z,2.1
2018-09-25T21:18:19.276Z,2.8
2018-09-25T21:20:19.071Z,2.1
2018-09-25T21:22:18.863Z,2.6
2018-09-25T21:24:18.626Z,1.6
2018-09-25T21:26:19.278Z,2.3
2018-09-25T21:28:19.035Z,1.9
2018-09-25T21:30:18.803Z,2.4
2018-09-25T21:32:18.558Z,2.3
2018-09-25T21:34:19.335Z,2.4
2018-09-25T21:36:19.461Z,2
2018-09-25T21:38:19.292Z,2
2018-09-25T21:40:18.529Z,1.9
2018-09-25T21:42:19.288Z,1.2
2018-09-25T21:44:19.065Z,1.8
2018-09-25T21:46:18.806Z,2.1
2018-09-25T21:48:18.587Z,2.4
2018-09-25T21:50:19.429Z,2.4
2018-09-25T21:52:19.169Z,3.3
2018-09-25T21:54:18.929Z,2.1
2018-09-25T21:56:18.680Z,2.2
2018-09-25T21:58:19.481Z,2
2018-09-25T22:00:19.259Z,2
2018-09-25T22:02:19.195Z,1.6
2018-09-25T22:04:19.146Z,1.8
2018-09-25T22:06:19.242Z,1.7
2018-09-25T22:08:19.053Z,2
2018-09-25T22:10:19.326Z,1.8
2018-09-25T22:12:18.893Z,2.2
2018-09-25T22:14:18.661Z,2.6
2018-09-25T22:16:18.699Z,1.6
2018-09-25T22:18:18.523Z,2.7
2018-09-25T22:20:19.283Z,2.6
2018-09-25T22:22:19.058Z,1.8
2018-09-25T22:24:18.827Z,1.9
2018-09-25T22:26:19.388Z,1.8
2018-09-25T22:28:19.184Z,1.7
2018-09-25T22:30:18.974Z,1.7
2018-09-25T22:32:18.733Z,1.9
2018-09-25T22:34:19.497Z,1.1
2018-09-25T22:36:18.537Z,1.9
2018-09-25T22:38:19.309Z,1.7
2018-09-25T22:40:18.574Z,2
2018-09-25T22:42:19.340Z,1.6
2018-09-25T22:44:19.116Z,1.2
2018-09-25T22:46:19.212Z,1.5
2018-09-25T22:48:18.985Z,1.8
2018-09-25T22:50:18.753Z,1.1
2018-09-25T22:52:18.507Z,1.3
2018-09-25T22:54:19.268Z,1.3
2018-09-25T22:56:19.343Z,1.3
2018-09-25T22:58:19.106Z,1.8
2018-09-25T23:00:18.875Z,1.4
2018-09-25T23:02:18.639Z,1.1
2018-09-25T23:04:19.410Z,1.1
2018-09-25T23:06:18.992Z,2
2018-09-25T23:08:18.759Z,1.2
2018-09-25T23:10:18.981Z,1.6
2018-09-25T23:12:18.735Z,1.8
2018-09-25T23:14:18.517Z,1.5
2018-09-25T23:16:18.631Z,1.8
2018-09-25T23:18:19.494Z,2.1
2018-09-25T23:20:19.267Z,1.2
2018-09-25T23:22:19.014Z,2.1
2018-09-25T23:24:18.785Z,2.2
2018-09-25T23:26:18.898Z,1.5
2018-09-25T23:28:18.664Z,2.5
2018-09-25T23:30:19.416Z,1.8
2018-09-25T23:32:19.186Z,2.2
2018-09-25T23:34:18.973Z,2.4
2018-09-25T23:36:18.651Z,2.8
2018-09-25T23:38:19.405Z,1.8
2018-09-25T23:40:18.671Z,1.6
2018-09-25T23:42:19.266Z,1.6
2018-09-25T23:44:19.027Z,1.6
2018-09-25T23:46:18.519Z,1.5
2018-09-25T23:48:19.283Z,1.6
2018-09-25T23:50:19.097Z,2.1
2018-09-25T23:52:18.873Z,1.8
2018-09-25T23:54:18.636Z,1.9
2018-09-25T23:56:19.046Z,2
2018-09-25T23:58:18.816Z,1.8
